• Join FlightAware (Why Join?)
  • Login
  • US Flag 
03:15PM EDT


 

Airport Tracker/Info


-or-


 

Live Flight TrackerFlight Track Log ✈ AAL1071 ✈ 15-Jun-2013 ✈ KPHL - KMIA

Flight Track Log - Related Links

Times and Time Zones

All times are in EDT time to prevent confusion due to time zone crossing. See the AAL1071 flight status page for this flight to view local times or setup timezone preferences in your user account.

Time Position Orientation Groundspeed Altitude Reporting Facility
EDT Latitude Longitude Course Direction KTS MPH feet Rate Location/Type
06:12AM 39.8667 -75.2833 180° South 171 197 800  Level Philadelphia TRACON
06:13AM 39.8333 -75.3167 218° Southwest 206 237 1,700 1,500 Climbing Philadelphia TRACON
06:14AM 39.6143 -75.3000 180° South  Level FlightAware Approximate
06:14AM 39.7833 -75.3667 218° Southwest 268 308 3,200  Level Philadelphia TRACON
06:15AM 39.4822 -75.3226 194° South  Level FlightAware Approximate
06:15AM 39.7167 -75.4000 201° Southwest 282 325 5,800  Level Philadelphia TRACON
06:16AM 39.3500 -75.3426 185° South  Level FlightAware Approximate
06:17AM 39.2192 -75.3667 180° South  Level FlightAware Approximate
06:17AM 39.5697 -75.3922 178° South 309 356 10,100  Level Washington Center
06:17AM 39.4758 -75.3900 179° South 315 362 11,300 1,800 Climbing Washington Center
06:19AM 39.3694 -75.3847 178° South 353 406 13,700 2,400 Climbing Washington Center
06:20AM 39.2569 -75.3825 179° South 387 445 16,300 2,520 Climbing Washington Center
06:20AM 39.1403 -75.3908 183° South 410 472 18,700 2,520 Climbing Washington Center
06:22AM 39.0047 -75.4100 186° South 439 505 21,300 2,100 Climbing Washington Center
06:22AM 38.8778 -75.4289 187° South 452 520 23,000 1,740 Climbing Washington Center
06:24AM 38.7486 -75.4533 188° South 473 544 24,800 1,620 Climbing Washington Center
06:25AM 38.6150 -75.4881 191° South 486 559 26,400 1,380 Climbing Washington Center
06:26AM 38.4881 -75.5572 203° Southwest 491 565 27,700 1,380 Climbing Washington Center
06:27AM 38.3525 -75.6208 200° South 505 581 29,200 1,440 Climbing Washington Center
06:27AM 38.2211 -75.6869 202° Southwest 510 587 30,600 1,380 Climbing Washington Center
06:29AM 38.0833 -75.7528 201° Southwest 516 594 32,000 1,200 Climbing Washington Center
06:30AM 37.9831 -75.8158 206° Southwest 516 594 33,100 1,140 Climbing Washington Center
06:31AM 37.8142 -75.8914 199° South 522 601 34,400 1,740 Climbing Washington Center
06:31AM 37.6844 -75.9619 203° Southwest 527 606 36,600 1,740 Climbing Washington Center
06:33AM 37.5592 -76.0292 203° Southwest 507 583 37,900 600 Climbing Washington Center
06:34AM 37.4381 -76.0889 201° Southwest 496 571 37,900  Level Washington Center
06:34AM 37.3106 -76.1481 200° South 491 565 38,000  Climbing Washington Center
06:36AM 37.1808 -76.2069 200° South 491 565 38,000  Level Washington Center
06:37AM 37.0533 -76.2686 201° Southwest 491 565 38,000  Level Washington Center
06:38AM 36.9256 -76.3350 203° Southwest 491 565 38,000  Level Washington Center
06:39AM 36.7958 -76.3961 201° Southwest 491 565 38,000  Level Washington Center
06:39AM 36.6703 -76.4619 203° Southwest 491 565 38,000  Level Washington Center
06:41AM 36.5383 -76.5253 201° Southwest 497 572 38,000 -60 Level Washington Center
06:42AM 36.4086 -76.5881 201° Southwest 497 572 37,900  Descending Washington Center
06:43AM 36.2786 -76.6508 201° Southwest 497 572 38,000  Climbing Washington Center
06:44AM 36.1467 -76.7108 200° South 502 578 38,000 -60 Level Washington Center
06:45AM 36.0272 -76.7683 201° Southwest 510 587 37,900  Descending Washington Center
06:46AM 35.8950 -76.8306 201° Southwest 515 593 38,000  Climbing Washington Center
06:47AM 35.7589 -76.8872 199° South 515 593 37,900  Descending Washington Center
06:48AM 35.6142 -76.9436 198° South 509 586 38,000  Climbing Washington Center
06:49AM 35.4739 -76.9922 196° South 504 580 38,000  Level Washington Center
06:50AM 35.3378 -77.0458 198° South 509 586 38,000  Level Washington Center
06:50AM 35.1994 -77.0942 196° South 515 593 38,000  Level Washington Center
06:52AM 35.0589 -77.1475 197° South 521 600 38,000  Level Washington Center
06:52AM 34.9225 -77.1956 196° South 514 592 38,000  Level Washington Center
06:54AM 34.8008 -77.2464 199° South 514 592 38,000  Level Washington Center
06:55AM 34.6606 -77.2964 196° South 520 598 38,000  Level Washington Center
06:56AM 34.5219 -77.3464 197° South 520 598 38,000 -60 Level Washington Center
06:58AM 34.1911 -77.4653 197° South 517 595 37,900  Descending Jacksonville Center
06:59AM 34.0350 -77.5200 196° South 524 603 38,000  Climbing Jacksonville Center
07:00AM 33.9014 -77.5683 197° South 520 598 38,000  Level Jacksonville Center
07:01AM 33.7678 -77.6164 197° South 506 582 38,000  Level Jacksonville Center
07:02AM 33.6319 -77.6619 196° South 512 589 38,000  Level Jacksonville Center
07:03AM 33.4983 -77.7097 197° South 507 583 38,000 -60 Level Jacksonville Center
07:04AM 33.3628 -77.7600 197° South 507 583 37,900  Descending Jacksonville Center
07:05AM 33.2331 -77.8069 197° South 507 583 38,000  Climbing Jacksonville Center
07:06AM 33.0972 -77.8544 196° South 507 583 37,900  Descending Jacksonville Center
07:07AM 32.9636 -77.9017 197° South 507 583 38,000  Climbing Jacksonville Center
07:08AM 32.8275 -77.9461 195° South 507 583 37,900  Descending Jacksonville Center
07:09AM 32.6936 -77.9931 196° South 507 583 38,000  Climbing Jacksonville Center
07:10AM 32.5600 -78.0397 196° South 507 583 37,900  Descending Jacksonville Center
07:11AM 32.4261 -78.0861 196° South 507 583 38,000  Climbing Jacksonville Center
07:12AM 32.2919 -78.1325 196° South 507 583 37,900  Descending Jacksonville Center
07:13AM 32.1600 -78.1761 196° South 507 583 38,000  Climbing Jacksonville Center
07:14AM 32.0303 -78.2222 197° South 496 571 38,000 -60 Level Jacksonville Center
07:15AM 31.9006 -78.2703 197° South 490 564 37,900 -60 Descending Jacksonville Center
07:16AM 31.7728 -78.3133 196° South 490 564 37,900  Level Jacksonville Center
07:17AM 31.6450 -78.3586 197° South 485 558 38,000  Climbing Jacksonville Center
07:18AM 31.5150 -78.4017 196° South 493 567 38,000  Level Jacksonville Center
07:19AM 31.3889 -78.4392 194° South 475 547 38,000 -60 Level Jacksonville Center
07:20AM 31.2572 -78.4917 199° South 484 557 37,900  Descending Jacksonville Center
07:21AM 31.1311 -78.5292 194° South 484 557 38,000  Climbing Jacksonville Center
07:22AM 31.0033 -78.5739 197° South 479 551 38,000  Level Jacksonville Center
07:23AM 30.8897 -78.6128 196° South 474 545 38,000  Level Jacksonville Center
07:24AM 30.7639 -78.6547 196° South 479 551 38,000 -60 Level Jacksonville Center
07:25AM 30.5831 -78.7056 194° South 473 544 37,900 -60 Descending Miami Center
07:26AM 30.4558 -78.7275 188° South 473 544 37,900  Level Miami Center
07:27AM 30.3261 -78.7492 188° South 473 544 37,900  Level Miami Center
07:28AM 30.1986 -78.7733 189° South 479 551 37,900  Level Miami Center
07:29AM 30.0672 -78.7925 187° South 473 544 38,000  Climbing Miami Center
07:30AM 29.9542 -78.8169 191° South 455 524 38,000  Level Miami Center
07:31AM 29.8267 -78.8361 187° South 454 522 38,000  Level Miami Center
07:32AM 29.7094 -78.8675 193° South 459 528 38,000  Level Miami Center
07:33AM 29.5800 -78.8794 185° South 466 536 38,000  Level Miami Center
07:34AM 29.4444 -78.8911 184° South 470 541 38,000  Level Miami Center
07:35AM 29.3169 -78.9103 187° South 475 547 38,000  Level Miami Center
07:36AM 29.1747 -78.9289 187° South 470 541 38,000  Level Miami Center
07:37AM 29.0450 -78.9478 187° South 470 541 38,000  Level Miami Center
07:38AM 28.9194 -78.9786 192° South 465 535 38,000  Level Miami Center
07:39AM 28.7917 -79.0117 193° South 465 535 38,000  Level Miami Center
07:40AM 28.6658 -79.0425 192° South 471 542 38,000  Level Miami Center
07:41AM 28.5403 -79.0731 192° South 471 542 38,000  Level Miami Center
07:42AM 28.4103 -79.1036 192° South 465 535 38,000  Level Miami Center
07:43AM 28.2847 -79.1342 192° South 470 541 38,000 -120 Level Miami Center
07:44AM 28.1611 -79.1622 191° South 470 541 37,800 -600 Descending Miami Center
07:45AM 28.0353 -79.1925 192° South 470 541 36,800 -960 Descending Miami Center
07:46AM 27.9075 -79.2206 191° South 470 541 35,900 -960 Descending Miami Center
07:47AM 27.7986 -79.2464 192° South 457 526 34,900 -1,020 Descending Miami Center
07:48AM 27.6519 -79.2808 192° South 473 544 33,900 -1,800 Descending Miami Center
07:49AM 27.5219 -79.3133 193° South 479 551 31,300 -2,700 Descending Miami Center
07:50AM 27.3897 -79.3433 191° South 479 551 28,500 -2,580 Descending Miami Center
07:51AM 27.2703 -79.3711 192° South 484 557 26,200 -1,860 Descending Miami Center
07:52AM 27.1503 -79.4150 198° South 471 542 24,800 -1,800 Descending Miami Center
07:53AM 27.0242 -79.4731 202° Southwest 457 526 22,700 -2,100 Descending Miami Center
07:54AM 26.9125 -79.5242 202° Southwest 447 514 20,600 -2,100 Descending Miami Center
07:55AM 26.8050 -79.5753 203° Southwest 428 493 18,600 -2,100 Descending Miami Center
07:56AM 26.6869 -79.6306 203° Southwest 393 452 16,300 -2,040 Descending Miami Center
07:57AM 26.6133 -79.6636 202° Southwest 397 457 14,600 -1,680 Descending Miami Center
07:58AM 26.5100 -79.7100 202° Southwest 376 433 13,200 -840 Descending Miami Center
07:59AM 26.4419 -79.7686 218° Southwest 319 367 13,000 -180 Descending Miami Center
07:59AM 26.4289 -79.7939 240° Southwest 301 346 13,000  Level Miami Center
08:00AM 26.3964 -79.8511 238° Southwest 314 361 13,000 -420 Level Miami Center
08:00AM 26.3833 -79.8761 240° Southwest 302 348 12,600 -1,440 Descending Miami Center
08:01AM 26.3492 -79.9147 225° Southwest 314 361 11,600 -1,500 Descending Miami Center
08:01AM 26.3194 -79.9372 214° Southwest 310 357 11,100 -1,320 Descending Miami Center
08:02AM 26.2753 -79.9569 202° Southwest 298 343 10,300 -1,140 Descending Miami Center
08:02AM 26.2436 -79.9722 203° Southwest 293 337 10,000 -300 Descending Miami Center
08:03AM 26.2014 -79.9850 195° South 290 334 10,000  Level Miami Center
08:04AM 26.1678 -79.9958 196° South 273 314 10,000 -720 Level Miami Center
08:04AM 26.1281 -80.0039 190° South 285 328 9,300 -1,020 Descending Miami Center
08:05AM 26.0944 -80.0122 193° South 264 304 9,000 -840 Descending Miami Center
08:05AM 26.0567 -80.0114 179° South 271 312 8,500 -1,020 Descending Miami Center
08:06AM 26.0253 -80.0150 186° South 239 275 8,000 -1,920 Descending Miami Center
08:06AM 25.9856 -80.0186 185° South 257 296 6,600 -2,400 Descending Miami Center
08:07AM 25.9583 -80.0272 196° South 232 267 5,600 -1,980 Descending Miami Center
08:08AM 25.8953 -80.0464 195° South 230 265 3,900 -1,680 Descending Miami Center